createdAt,value
2022-08-07T00:02:37.292Z,97.00
2022-08-07T00:05:06.059Z,97.00
2022-08-07T00:07:36.875Z,97.00
2022-08-07T00:10:27.390Z,97.00
2022-08-07T00:13:00.684Z,97.00
2022-08-07T00:15:38.253Z,97.00
2022-08-07T00:18:19.750Z,97.00
2022-08-07T00:20:53.362Z,97.00
2022-08-07T00:23:21.905Z,97.00
2022-08-07T00:25:58.929Z,97.00
2022-08-07T00:28:33.262Z,97.00
2022-08-07T00:31:05.959Z,97.00
2022-08-07T00:33:36.246Z,97.00
2022-08-07T00:36:05.946Z,97.00
2022-08-07T00:38:36.694Z,97.00
2022-08-07T00:41:09.769Z,97.00
2022-08-07T00:44:00.754Z,97.00
2022-08-07T00:46:33.132Z,97.00
2022-08-07T00:49:03.926Z,97.00
2022-08-07T00:51:57.054Z,97.00
2022-08-07T00:54:21.217Z,97.00
2022-08-07T00:56:51.242Z,97.00
2022-08-07T00:59:35.175Z,97.00
2022-08-07T01:02:09.053Z,97.00
2022-08-07T01:04:50.508Z,97.00
2022-08-07T01:07:22.444Z,97.00
2022-08-07T01:10:04.846Z,97.00
2022-08-07T01:12:36.607Z,97.00
2022-08-07T01:15:06.505Z,97.00
2022-08-07T01:17:40.494Z,97.00
2022-08-07T01:20:17.143Z,97.00
2022-08-07T01:23:00.805Z,97.00
2022-08-07T01:25:54.870Z,97.00
2022-08-07T01:28:25.229Z,97.00
2022-08-07T01:30:54.075Z,97.00
2022-08-07T01:33:23.044Z,97.00
2022-08-07T01:35:53.115Z,97.00
2022-08-07T01:38:25.797Z,97.00
2022-08-07T01:40:57.055Z,97.00
2022-08-07T01:43:26.708Z,97.00
2022-08-07T01:46:04.516Z,97.00
2022-08-07T01:48:33.753Z,97.00
2022-08-07T01:51:24.691Z,97.00
2022-08-07T01:54:09.507Z,97.00
2022-08-07T01:56:49.741Z,97.00
2022-08-07T01:59:30.876Z,97.00
2022-08-07T02:02:06.128Z,97.00
2022-08-07T02:05:15.816Z,97.00
2022-08-07T02:07:51.630Z,97.00
2022-08-07T02:10:25.914Z,97.00
2022-08-07T02:12:58.136Z,97.00
2022-08-07T02:15:29.195Z,97.00
2022-08-07T02:18:00.404Z,97.00
2022-08-07T02:20:31.475Z,97.00
2022-08-07T02:23:03.524Z,97.00
2022-08-07T02:26:31.380Z,97.00
2022-08-07T02:28:27.253Z,97.00
2022-08-07T02:30:57.508Z,97.00
2022-08-07T02:33:42.184Z,97.00
2022-08-07T02:36:29.408Z,97.00
2022-08-07T02:39:09.508Z,97.00
2022-08-07T02:41:54.511Z,97.00
2022-08-07T02:44:27.493Z,97.00
2022-08-07T02:46:57.676Z,97.00
2022-08-07T02:49:56.356Z,97.00
2022-08-07T02:52:21.455Z,97.00
2022-08-07T02:55:04.012Z,97.00
2022-08-07T02:57:38.670Z,97.00
2022-08-07T03:00:10.452Z,97.00
2022-08-07T03:02:54.228Z,97.00
2022-08-07T03:05:24.557Z,97.00
2022-08-07T03:08:07.437Z,97.00
2022-08-07T03:10:40.963Z,97.00
2022-08-07T03:13:19.270Z,97.00
2022-08-07T03:15:56.549Z,97.00
2022-08-07T03:18:34.175Z,97.00
2022-08-07T03:21:04.584Z,97.00
2022-08-07T03:24:19.559Z,97.00
2022-08-07T03:26:31.155Z,97.00
2022-08-07T03:29:03.506Z,97.00
2022-08-07T03:31:43.130Z,97.00
2022-08-07T03:34:18.631Z,97.00
2022-08-07T03:36:53.361Z,97.00
2022-08-07T03:39:46.249Z,97.00
2022-08-07T03:42:14.298Z,97.00
2022-08-07T03:44:47.290Z,97.00
2022-08-07T03:47:29.414Z,97.00
2022-08-07T03:50:11.675Z,97.00
2022-08-07T03:52:42.335Z,97.00
2022-08-07T03:55:11.294Z,97.00
2022-08-07T03:58:33.366Z,97.00
2022-08-07T04:00:33.620Z,97.00
2022-08-07T04:03:05.037Z,97.00
2022-08-07T04:05:40.578Z,97.00
2022-08-07T04:08:12.606Z,97.00
2022-08-07T04:10:53.879Z,97.00
2022-08-07T04:14:10.900Z,97.00
2022-08-07T04:16:31.576Z,97.00
2022-08-07T04:19:03.864Z,97.00
2022-08-07T04:21:33.709Z,97.00
2022-08-07T04:24:07.479Z,97.00
2022-08-07T04:26:36.587Z,97.00
2022-08-07T04:29:05.067Z,97.00
2022-08-07T04:31:39.043Z,97.00
2022-08-07T04:34:32.982Z,97.00
2022-08-07T04:37:02.167Z,97.00
2022-08-07T04:39:36.744Z,97.00
2022-08-07T04:42:13.426Z,97.00
2022-08-07T04:45:02.645Z,97.00
2022-08-07T04:48:00.461Z,97.00
2022-08-07T04:50:38.754Z,97.00
2022-08-07T04:53:16.427Z,97.00
2022-08-07T04:58:12.435Z,97.00
2022-08-07T04:59:17.508Z,97.00
2022-08-07T05:01:50.439Z,97.00
2022-08-07T05:04:29.466Z,97.00
2022-08-07T05:07:19.596Z,97.00
2022-08-07T05:09:57.206Z,97.00
2022-08-07T05:12:33.186Z,97.00
2022-08-07T05:15:23.092Z,97.00
2022-08-07T05:17:58.246Z,97.00
2022-08-07T05:20:34.966Z,97.00
2022-08-07T05:23:15.648Z,97.00
2022-08-07T05:26:10.520Z,97.00
2022-08-07T05:28:36.715Z,97.00
2022-08-07T05:31:12.762Z,97.00
2022-08-07T05:34:01.356Z,97.00
2022-08-07T05:36:36.115Z,97.00
2022-08-07T05:40:06.971Z,97.00
2022-08-07T05:42:01.176Z,97.00
2022-08-07T05:44:35.135Z,97.00
2022-08-07T05:47:18.271Z,97.00
2022-08-07T05:49:50.125Z,97.00
2022-08-07T05:52:32.468Z,97.00
2022-08-07T05:55:07.255Z,97.00
2022-08-07T05:57:42.005Z,97.00
2022-08-07T06:00:16.617Z,97.00
2022-08-07T06:02:50.672Z,97.00
2022-08-07T06:05:28.212Z,97.00
2022-08-07T06:08:09.049Z,97.00
2022-08-07T06:10:52.074Z,97.00
2022-08-07T06:14:10.633Z,97.00
2022-08-07T06:16:14.274Z,97.00
2022-08-07T06:18:43.522Z,97.00
2022-08-07T06:22:16.520Z,97.00
2022-08-07T06:24:45.642Z,97.00
2022-08-07T06:27:00.015Z,97.00
2022-08-07T06:29:34.112Z,97.00
2022-08-07T06:32:02.677Z,97.00
2022-08-07T06:34:33.095Z,97.00
2022-08-07T06:37:02.433Z,97.00
2022-08-07T06:40:16.902Z,97.00
2022-08-07T06:42:35.117Z,97.00
2022-08-07T06:45:05.089Z,97.00
2022-08-07T06:47:48.044Z,97.00
2022-08-07T06:50:22.603Z,97.00
2022-08-07T06:52:56.534Z,97.00
2022-08-07T06:55:53.490Z,97.00
2022-08-07T06:58:21.463Z,97.00
2022-08-07T07:00:54.229Z,97.00
2022-08-07T07:03:40.124Z,97.00
2022-08-07T07:06:11.874Z,97.00
2022-08-07T07:08:46.740Z,97.00
2022-08-07T07:12:08.748Z,97.00
2022-08-07T07:14:08.526Z,97.00
2022-08-07T07:16:49.993Z,97.00
2022-08-07T07:19:55.717Z,97.00
2022-08-07T07:22:35.955Z,97.00
2022-08-07T07:25:14.024Z,97.00
2022-08-07T07:28:03.154Z,97.00
2022-08-07T07:30:38.398Z,97.00
2022-08-07T07:33:11.377Z,97.00
2022-08-07T07:35:44.008Z,97.00
2022-08-07T07:38:34.988Z,97.00
2022-08-07T07:41:08.562Z,97.00
2022-08-07T07:44:14.297Z,97.00
2022-08-07T07:46:37.546Z,97.00
2022-08-07T07:50:34.215Z,97.00
2022-08-07T07:52:16.125Z,97.00
2022-08-07T07:54:51.390Z,97.00
2022-08-07T07:57:50.388Z,97.00
2022-08-07T08:00:29.118Z,97.00
2022-08-07T08:03:05.624Z,97.00
2022-08-07T08:05:50.920Z,97.00
2022-08-07T08:08:35.087Z,97.00
2022-08-07T08:11:13.556Z,97.00
2022-08-07T08:13:53.332Z,97.00
2022-08-07T08:16:31.189Z,97.00
2022-08-07T08:19:17.403Z,97.00
2022-08-07T08:22:09.848Z,97.00
2022-08-07T08:25:09.431Z,97.00
2022-08-07T08:27:56.820Z,97.00
2022-08-07T08:30:30.272Z,97.00
2022-08-07T08:33:10.557Z,97.00
2022-08-07T08:35:50.058Z,97.00
2022-08-07T08:38:22.054Z,97.00
2022-08-07T08:41:03.796Z,97.00
2022-08-07T08:43:42.311Z,97.00
2022-08-07T08:46:20.333Z,97.00
2022-08-07T08:48:58.685Z,97.00
2022-08-07T08:52:12.533Z,97.00
2022-08-07T08:54:27.655Z,97.00
2022-08-07T08:57:00.344Z,97.00
2022-08-07T08:59:42.079Z,97.00
2022-08-07T09:02:34.702Z,97.00
2022-08-07T09:05:26.421Z,97.00
2022-08-07T09:08:12.286Z,97.00
2022-08-07T09:10:53.184Z,97.00
2022-08-07T09:13:37.572Z,97.00
2022-08-07T09:16:20.045Z,97.00
2022-08-07T09:19:51.694Z,97.00
2022-08-07T09:24:28.255Z,97.00
2022-08-07T09:25:14.687Z,97.00
2022-08-07T09:28:00.922Z,97.00
2022-08-07T09:30:44.151Z,97.00
2022-08-07T09:33:53.103Z,97.00
2022-08-07T09:36:33.526Z,97.00
2022-08-07T09:39:54.149Z,97.00
2022-08-07T09:42:33.398Z,97.00
2022-08-07T09:47:24.304Z,97.00
2022-08-07T09:48:19.129Z,97.00
2022-08-07T09:51:01.072Z,97.00
2022-08-07T09:53:41.256Z,97.00
2022-08-07T09:56:39.206Z,97.00
2022-08-07T09:59:46.275Z,97.00
2022-08-07T10:02:55.343Z,97.00
2022-08-07T10:06:11.988Z,97.00
2022-08-07T10:08:57.176Z,97.00
2022-08-07T10:12:01.427Z,97.00
2022-08-07T10:14:58.321Z,97.00
2022-08-07T10:18:01.572Z,97.00
2022-08-07T10:20:45.467Z,97.00
2022-08-07T10:24:05.252Z,97.00
2022-08-07T10:26:45.125Z,97.00
2022-08-07T10:29:53.014Z,97.00
2022-08-07T10:32:59.806Z,97.00
2022-08-07T10:35:53.668Z,97.00
2022-08-07T10:38:48.928Z,97.00
2022-08-07T10:41:46.431Z,97.00
2022-08-07T10:44:37.970Z,97.00
2022-08-07T10:47:31.160Z,97.00
2022-08-07T10:50:16.021Z,97.00
2022-08-07T10:52:56.703Z,97.00
2022-08-07T10:55:38.646Z,97.00
2022-08-07T10:58:36.476Z,97.00
2022-08-07T11:01:23.962Z,97.00
2022-08-07T11:04:17.061Z,97.00
2022-08-07T11:07:04.383Z,97.00
2022-08-07T11:10:10.062Z,97.00
2022-08-07T11:12:49.219Z,97.00
2022-08-07T11:15:35.565Z,97.00
2022-08-07T11:18:15.955Z,97.00
2022-08-07T11:20:52.813Z,97.00
2022-08-07T11:23:36.429Z,97.00
2022-08-07T11:26:13.439Z,97.00
2022-08-07T11:28:53.471Z,97.00
2022-08-07T11:31:35.335Z,97.00
2022-08-07T11:34:17.284Z,97.00
2022-08-07T11:36:57.845Z,97.00
2022-08-07T11:40:00.138Z,97.00
2022-08-07T11:42:42.220Z,97.00
2022-08-07T11:45:23.744Z,97.00
2022-08-07T11:48:29.825Z,97.00
2022-08-07T11:51:41.770Z,97.00
2022-08-07T11:54:22.137Z,97.00
2022-08-07T11:57:06.989Z,97.00
2022-08-07T12:00:19.127Z,97.00
2022-08-07T12:03:44.588Z,97.00
2022-08-07T12:06:39.851Z,97.00
2022-08-07T12:09:23.754Z,97.00
2022-08-07T12:12:10.281Z,97.00
2022-08-07T12:14:55.450Z,97.00
2022-08-07T12:17:35.796Z,97.00
2022-08-07T12:20:18.497Z,97.00
2022-08-07T12:23:18.001Z,97.00
2022-08-07T12:26:23.203Z,97.00
2022-08-07T12:29:02.780Z,97.00
2022-08-07T12:32:02.278Z,97.00
2022-08-07T12:34:31.182Z,97.00
2022-08-07T12:37:02.043Z,97.00
2022-08-07T12:39:50.714Z,97.00
2022-08-07T12:42:27.737Z,97.00
2022-08-07T12:44:59.915Z,97.00
2022-08-07T12:47:41.644Z,97.00
2022-08-07T12:50:38.993Z,97.00
2022-08-07T12:53:18.235Z,97.00
2022-08-07T12:56:03.533Z,97.00
2022-08-07T12:58:39.454Z,97.00
2022-08-07T13:01:18.386Z,97.00
2022-08-07T13:04:02.597Z,97.00
2022-08-07T13:07:10.189Z,97.00
2022-08-07T13:10:37.348Z,97.00
2022-08-07T13:13:47.007Z,97.00
2022-08-07T13:16:28.346Z,97.00
2022-08-07T13:19:04.328Z,97.00
2022-08-07T13:21:58.929Z,97.00
2022-08-07T13:24:54.066Z,97.00
2022-08-07T13:28:06.261Z,97.00
2022-08-07T13:30:41.165Z,97.00
2022-08-07T13:34:34.000Z,97.00
2022-08-07T13:36:17.749Z,97.00
2022-08-07T13:38:54.385Z,97.00
2022-08-07T13:41:33.385Z,97.00
2022-08-07T13:44:05.150Z,97.00
2022-08-07T13:46:49.635Z,97.00
2022-08-07T13:50:35.435Z,97.00
2022-08-07T13:52:32.194Z,97.00
2022-08-07T13:55:00.933Z,97.00
2022-08-07T13:57:37.627Z,97.00
2022-08-07T14:00:26.019Z,97.00
2022-08-07T14:02:59.065Z,97.00
2022-08-07T14:05:37.455Z,97.00
2022-08-07T14:08:08.865Z,97.00
2022-08-07T14:10:42.338Z,97.00
2022-08-07T14:13:17.921Z,97.00
2022-08-07T14:15:53.054Z,97.00
2022-08-07T14:18:32.845Z,97.00
2022-08-07T14:21:20.759Z,97.00
2022-08-07T14:24:14.154Z,97.00
2022-08-07T14:26:50.245Z,97.00
2022-08-07T14:30:05.724Z,97.00
2022-08-07T14:32:15.142Z,97.00
2022-08-07T14:34:48.175Z,97.00
2022-08-07T14:37:19.475Z,97.00
2022-08-07T14:40:19.724Z,97.00
2022-08-07T14:43:00.819Z,97.00
2022-08-07T14:45:51.237Z,97.00
2022-08-07T14:48:27.631Z,97.00
2022-08-07T14:51:00.260Z,97.00
2022-08-07T14:56:29.871Z,97.00
2022-08-07T14:59:02.886Z,97.00
2022-08-07T15:01:42.710Z,97.00
2022-08-07T15:04:25.256Z,97.00
2022-08-07T15:06:55.386Z,97.00
2022-08-07T15:09:58.156Z,97.00
2022-08-07T15:12:25.538Z,97.00
2022-08-07T15:14:57.937Z,97.00
2022-08-07T15:17:32.779Z,97.00
2022-08-07T15:20:32.924Z,97.00
2022-08-07T15:23:20.236Z,97.00
2022-08-07T15:25:56.145Z,97.00
2022-08-07T15:28:38.594Z,96.90
2022-08-07T15:32:00.726Z,96.80
2022-08-07T15:34:04.946Z,96.10
2022-08-07T15:37:02.925Z,95.30
2022-08-07T15:39:56.250Z,95.40
2022-08-07T15:42:43.287Z,95.10
2022-08-07T15:45:19.376Z,95.50
2022-08-07T15:48:00.977Z,96.30
2022-08-07T15:51:01.343Z,95.70
2022-08-07T15:53:52.286Z,96.90
2022-08-07T15:56:18.119Z,97.00
2022-08-07T15:58:52.490Z,96.50
2022-08-07T16:01:38.351Z,97.00
2022-08-07T16:04:14.704Z,97.00
2022-08-07T16:06:50.124Z,97.00
2022-08-07T16:09:24.128Z,97.00
2022-08-07T16:12:32.037Z,97.00
2022-08-07T16:15:51.665Z,97.00
2022-08-07T16:18:49.370Z,97.00
2022-08-07T16:21:44.197Z,97.00
2022-08-07T16:24:02.449Z,97.00
2022-08-07T16:26:58.728Z,97.00
2022-08-07T16:30:10.625Z,97.00
2022-08-07T16:32:46.705Z,97.00
2022-08-07T16:35:56.636Z,97.00
2022-08-07T16:39:00.024Z,97.00
2022-08-07T16:41:54.199Z,97.00
2022-08-07T16:45:15.217Z,97.00
2022-08-07T16:49:04.360Z,97.00
2022-08-07T16:52:01.910Z,97.00
2022-08-07T16:54:54.221Z,97.00
2022-08-07T16:58:02.754Z,97.00
2022-08-07T17:00:29.683Z,97.00
2022-08-07T17:03:17.877Z,97.00
2022-08-07T17:06:18.901Z,97.00
2022-08-07T17:09:10.694Z,97.00
2022-08-07T17:12:04.476Z,97.00
2022-08-07T17:14:46.305Z,97.00
2022-08-07T17:17:44.023Z,97.00
2022-08-07T17:20:30.663Z,97.00
2022-08-07T17:23:08.550Z,97.00
2022-08-07T17:25:52.706Z,97.00
2022-08-07T17:28:32.484Z,97.00
2022-08-07T17:31:16.619Z,97.00
2022-08-07T17:34:15.314Z,97.00
2022-08-07T17:36:57.507Z,97.00
2022-08-07T17:39:58.259Z,97.00
2022-08-07T17:42:59.123Z,97.00
2022-08-07T17:45:35.006Z,97.00
2022-08-07T17:48:10.429Z,97.00
2022-08-07T17:50:56.449Z,97.00
2022-08-07T17:54:00.934Z,97.00
2022-08-07T17:56:33.213Z,97.00
2022-08-07T17:59:09.947Z,97.00
2022-08-07T18:01:51.615Z,97.00
2022-08-07T18:04:36.243Z,97.00
2022-08-07T18:07:34.323Z,97.00
2022-08-07T18:10:28.640Z,97.00
2022-08-07T18:13:16.655Z,97.00
2022-08-07T18:16:04.773Z,97.00
2022-08-07T18:21:03.366Z,97.00
2022-08-07T18:21:57.911Z,97.00
2022-08-07T18:24:34.014Z,97.00
2022-08-07T18:27:39.035Z,97.00
2022-08-07T18:30:31.266Z,97.00
2022-08-07T18:33:37.844Z,97.00
2022-08-07T18:36:18.300Z,97.00
2022-08-07T18:40:05.251Z,97.00
2022-08-07T18:42:16.868Z,97.00
2022-08-07T18:45:44.993Z,97.00
2022-08-07T18:48:01.124Z,97.00
2022-08-07T18:50:58.626Z,97.00
2022-08-07T18:53:40.123Z,97.00
2022-08-07T18:56:20.825Z,97.00
2022-08-07T18:59:47.115Z,97.00
2022-08-07T19:02:32.263Z,97.00
2022-08-07T19:05:10.761Z,97.00
2022-08-07T19:07:58.665Z,97.00
2022-08-07T19:10:49.968Z,97.00
2022-08-07T19:13:27.455Z,97.00
2022-08-07T19:17:06.465Z,97.00
2022-08-07T19:19:01.696Z,97.00
2022-08-07T19:21:44.350Z,97.00
2022-08-07T19:24:30.989Z,97.00
2022-08-07T19:28:57.819Z,97.00
2022-08-07T19:31:04.542Z,97.00
2022-08-07T19:32:51.280Z,97.00
2022-08-07T19:35:25.396Z,97.00
2022-08-07T19:37:59.646Z,97.00
2022-08-07T19:40:34.626Z,97.00
2022-08-07T19:43:10.616Z,97.00
2022-08-07T19:46:05.566Z,97.00
2022-08-07T19:48:42.707Z,97.00
2022-08-07T19:51:19.809Z,97.00
2022-08-07T19:54:32.316Z,97.00
2022-08-07T19:57:59.983Z,97.00
2022-08-07T19:59:42.155Z,97.00
2022-08-07T20:02:19.835Z,97.00
2022-08-07T20:05:00.260Z,97.00
2022-08-07T20:07:46.340Z,97.00
2022-08-07T20:10:37.974Z,97.00
2022-08-07T20:13:22.351Z,97.00
2022-08-07T20:15:57.941Z,97.00
2022-08-07T20:18:33.721Z,97.00
2022-08-07T20:21:21.571Z,97.00
2022-08-07T20:23:57.982Z,97.00
2022-08-07T20:26:38.885Z,97.00
2022-08-07T20:29:48.179Z,97.00
2022-08-07T20:32:11.494Z,97.00
2022-08-07T20:34:52.763Z,97.00
2022-08-07T20:37:29.465Z,97.00
2022-08-07T20:40:05.017Z,97.00
2022-08-07T20:42:56.313Z,97.00
2022-08-07T20:45:32.998Z,97.00
2022-08-07T20:48:28.550Z,97.00
2022-08-07T20:51:01.452Z,97.00
2022-08-07T20:54:02.069Z,97.00
2022-08-07T20:56:26.859Z,97.00
2022-08-07T20:59:00.026Z,97.00
2022-08-07T21:01:45.697Z,97.00
2022-08-07T21:04:23.952Z,97.00
2022-08-07T21:06:56.849Z,97.00
2022-08-07T21:09:35.377Z,97.00
2022-08-07T21:12:26.127Z,97.00
2022-08-07T21:15:00.851Z,97.00
2022-08-07T21:18:17.310Z,97.00
2022-08-07T21:20:29.763Z,97.00
2022-08-07T21:23:08.516Z,97.00
2022-08-07T21:25:58.668Z,97.00
2022-08-07T21:28:48.074Z,97.00
2022-08-07T21:31:49.998Z,97.00
2022-08-07T21:34:26.747Z,97.00
2022-08-07T21:37:06.434Z,97.00
2022-08-07T21:39:51.754Z,97.00
2022-08-07T21:42:46.180Z,97.00
2022-08-07T21:46:04.906Z,97.00
2022-08-07T21:48:27.748Z,97.00
2022-08-07T21:51:19.770Z,97.00
2022-08-07T21:53:54.606Z,97.00
2022-08-07T21:56:36.168Z,97.00
2022-08-07T21:59:18.464Z,97.00
2022-08-07T22:02:10.905Z,97.00
2022-08-07T22:04:51.232Z,97.00
2022-08-07T22:07:35.692Z,97.00
2022-08-07T22:10:20.667Z,97.00
2022-08-07T22:12:56.762Z,97.00
2022-08-07T22:16:44.357Z,97.00
2022-08-07T22:18:24.935Z,97.00
2022-08-07T22:20:59.739Z,97.00
2022-08-07T22:23:40.222Z,97.00
2022-08-07T22:26:19.939Z,97.00
2022-08-07T22:28:56.253Z,97.00
2022-08-07T22:31:59.408Z,97.00
2022-08-07T22:34:35.503Z,97.00
2022-08-07T22:37:14.870Z,97.00
2022-08-07T22:39:53.096Z,97.00
2022-08-07T22:42:54.034Z,97.00
2022-08-07T22:46:04.450Z,97.00
2022-08-07T22:48:13.577Z,97.00
2022-08-07T22:51:19.284Z,97.00
2022-08-07T22:54:05.222Z,97.00
2022-08-07T22:57:02.083Z,97.00
2022-08-07T22:59:49.904Z,97.00
2022-08-07T23:02:41.694Z,97.00
2022-08-07T23:06:10.341Z,97.00
2022-08-07T23:08:51.534Z,97.00
2022-08-07T23:11:44.246Z,97.00
2022-08-07T23:14:32.599Z,97.00
2022-08-07T23:17:33.680Z,97.00
2022-08-07T23:20:51.071Z,97.00
2022-08-07T23:24:06.086Z,97.00
2022-08-07T23:26:41.095Z,97.00
2022-08-07T23:30:37.608Z,97.00
2022-08-07T23:34:34.963Z,97.00
2022-08-07T23:35:48.257Z,97.00
2022-08-07T23:38:36.948Z,97.00
2022-08-07T23:41:33.621Z,97.00
2022-08-07T23:44:13.036Z,97.00
2022-08-07T23:47:10.814Z,97.00
2022-08-07T23:50:16.614Z,97.00
2022-08-07T23:53:17.190Z,97.00
2022-08-07T23:55:53.635Z,97.00
2022-08-07T23:58:37.398Z,97.00
